Time;durP1;ratioP1;P1;durP2;ratioP2;P2;SDS_P1;SDS_P2;PMS_P1;PMS_P2;Temp;Humidity;BMP_temperature;BMP_pressure;BME280_temperature;BME280_humidity;BME280_pressure;Samples;Min_cycle;Max_cycle;Signal;HPM_P1;HPM_P2
2023/06/01 00:01:46;;;;;;;13.38;7.43;;;;;;;16.06;66.73;102201.63;5035833;28;20033;-62
2023/06/01 00:04:13;;;;;;;13.05;7.53;;;;;;;15.86;67.35;102192.53;5035828;28;20042;-63
2023/06/01 00:06:39;;;;;;;12.50;7.40;;;;;;;15.88;67.26;102193.41;5036109;28;20087;-63
2023/06/01 00:09:04;;;;;;;21.42;7.47;;;;;;;15.79;67.65;102188.88;5036018;28;20108;-62
2023/06/01 00:11:30;;;;;;;13.38;7.25;;;;;;;15.80;67.39;102196.00;5035947;28;20558;-63
2023/06/01 00:13:56;;;;;;;12.02;7.13;;;;;;;15.78;67.75;102203.97;5035601;28;20033;-62
2023/06/01 00:16:22;;;;;;;14.93;7.88;;;;;;;15.69;67.94;102201.22;5035640;28;20029;-66
2023/06/01 00:18:48;;;;;;;11.40;7.15;;;;;;;15.66;68.08;102195.84;5035648;28;20059;-62
2023/06/01 00:21:14;;;;;;;14.82;7.65;;;;;;;15.59;68.29;102195.72;5035539;28;20045;-64
2023/06/01 00:23:40;;;;;;;16.13;8.15;;;;;;;15.59;68.38;102193.97;5035355;28;20557;-62
2023/06/01 00:26:07;;;;;;;15.23;7.72;;;;;;;15.56;68.30;102185.03;5035363;28;20060;-63
2023/06/01 00:28:32;;;;;;;14.52;7.80;;;;;;;15.50;68.29;102188.50;5035114;28;20047;-62
2023/06/01 00:30:58;;;;;;;12.32;8.05;;;;;;;15.38;68.42;102189.28;5035385;28;20509;-62
2023/06/01 00:33:23;;;;;;;14.88;7.63;;;;;;;15.38;68.98;102189.28;5035430;28;20033;-65
2023/06/01 00:35:49;;;;;;;14.00;8.20;;;;;;;15.18;69.24;102190.78;5035331;28;20030;-63
2023/06/01 00:38:15;;;;;;;13.15;7.85;;;;;;;15.09;70.31;102196.88;5035345;28;20095;-63
2023/06/01 00:40:40;;;;;;;13.75;8.05;;;;;;;15.00;69.70;102197.66;5035093;28;20494;-63
2023/06/01 00:43:05;;;;;;;14.65;7.95;;;;;;;14.95;70.38;102191.38;5017526;28;20113;-65
2023/06/01 00:45:31;;;;;;;13.43;7.85;;;;;;;14.86;70.54;102190.31;5035203;28;20479;-66
2023/06/01 00:47:57;;;;;;;14.15;7.93;;;;;;;14.76;70.93;102191.97;5035143;28;20056;-64
2023/06/01 00:50:23;;;;;;;15.23;7.57;;;;;;;14.75;70.87;102188.41;5035139;28;20025;-65
2023/06/01 00:52:50;;;;;;;13.45;8.43;;;;;;;14.70;71.07;102189.22;5035084;28;20091;-64
2023/06/01 00:55:15;;;;;;;16.90;8.32;;;;;;;14.63;71.02;102182.00;5034810;28;20109;-64
2023/06/01 00:57:43;;;;;;;12.88;8.07;;;;;;;14.63;71.46;102187.31;5034801;28;20053;-64
2023/06/01 01:00:09;;;;;;;13.80;8.40;;;;;;;14.57;71.26;102185.47;5034927;28;20131;-64
2023/06/01 01:02:40;;;;;;;13.13;8.07;;;;;;;14.55;71.32;102186.31;5034845;28;20037;-63
2023/06/01 01:05:10;;;;;;;12.98;8.25;;;;;;;14.50;71.80;102200.41;5034801;28;20063;-63
2023/06/01 01:07:47;;;;;;;16.05;8.35;;;;;;;14.47;71.88;102208.34;5035024;28;20486;-62
2023/06/01 01:10:32;;;;;;;13.90;8.55;;;;;;;14.48;71.40;102204.84;5034984;28;20025;-65
2023/06/01 01:13:15;;;;;;;14.25;8.68;;;;;;;14.49;70.95;102203.97;5017318;28;20080;-63
2023/06/01 01:15:46;;;;;;;15.13;8.80;;;;;;;14.45;71.55;102210.06;5034590;28;20029;-64
2023/06/01 01:18:19;;;;;;;16.70;8.77;;;;;;;14.49;71.00;102208.38;5034573;28;20415;-64
2023/06/01 01:20:47;;;;;;;;;;;;;;;14.74;68.83;102215.88;5034822;28;20025;-63
2023/06/01 01:23:27;;;;;;;17.50;9.13;;;;;;;14.55;70.74;102207.59;5034489;28;19913;-64
2023/06/01 01:26:15;;;;;;;15.63;8.40;;;;;;;14.51;70.56;102201.31;5034450;28;20131;-65
2023/06/01 01:28:51;;;;;;;17.15;9.00;;;;;;;14.44;70.88;102205.63;5016296;28;20124;-64
2023/06/01 01:31:18;;;;;;;17.55;9.40;;;;;;;14.34;70.99;102203.66;5034490;28;20029;-64
2023/06/01 01:33:46;;;;;;;15.95;9.35;;;;;;;14.20;71.50;102198.09;5016640;28;20029;-64
2023/06/01 01:36:12;;;;;;;16.90;10.00;;;;;;;14.09;72.05;102199.69;5034434;28;20037;-63
2023/06/01 01:38:38;;;;;;;17.45;9.55;;;;;;;14.03;71.98;102203.13;5034095;28;20447;-64
2023/06/01 01:41:04;;;;;;;18.27;10.27;;;;;;;13.98;72.18;102202.16;5016498;28;20033;-64
2023/06/01 01:43:30;;;;;;;16.70;9.95;;;;;;;13.93;72.47;102211.81;5034058;28;20032;-64
2023/06/01 01:46:16;;;;;;;19.98;10.15;;;;;;;13.83;72.65;102215.13;5034239;28;20036;-64
2023/06/01 01:48:54;;;;;;;15.85;10.27;;;;;;;13.79;72.80;102215.97;5034105;28;20029;-63
2023/06/01 01:51:29;;;;;;;17.45;10.05;;;;;;;13.81;72.89;102216.00;5034018;28;20104;-62
2023/06/01 01:53:57;;;;;;;19.45;10.85;;;;;;;13.86;72.31;102214.31;5033451;28;20022;-63
2023/06/01 01:56:23;;;;;;;18.65;11.25;;;;;;;13.72;73.08;102214.94;5033983;28;20060;-63
2023/06/01 01:58:49;;;;;;;19.05;11.40;;;;;;;13.60;73.21;102214.69;5015966;28;20026;-64
2023/06/01 02:01:15;;;;;;;16.23;10.73;;;;;;;13.56;73.25;102219.91;5033741;28;20033;-64
2023/06/01 02:03:41;;;;;;;23.25;11.18;;;;;;;13.59;73.23;102215.56;5033599;28;20036;-63
2023/06/01 02:06:06;;;;;;;19.50;11.43;;;;;;;13.31;73.42;102184.88;5033738;28;20026;-65
2023/06/01 02:08:32;;;;;;;20.90;11.43;;;;;;;13.43;73.51;102224.97;5033457;28;20546;-63
2023/06/01 02:10:57;;;;;;;19.02;11.88;;;;;;;13.45;73.35;102215.28;5033449;28;20026;-63
2023/06/01 02:13:22;;;;;;;16.67;11.10;;;;;;;13.41;73.58;102215.19;5033495;28;20522;-65
2023/06/01 02:15:48;;;;;;;17.92;11.13;;;;;;;13.32;73.67;102217.63;5033667;28;20033;-64
2023/06/01 02:18:17;;;;;;;16.92;11.27;;;;;;;13.35;73.99;102207.97;5033422;28;20029;-63
2023/06/01 02:20:44;;;;;;;19.55;11.15;;;;;;;13.29;74.22;102199.88;5033028;28;20034;-64
2023/06/01 02:23:09;;;;;;;16.65;11.38;;;;;;;13.32;73.92;102210.59;5033267;28;20036;-63
2023/06/01 02:25:35;;;;;;;18.23;11.15;;;;;;;13.32;73.75;102212.31;5032826;28;20108;-65
2023/06/01 02:28:01;;;;;;;16.25;11.10;;;;;;;13.28;73.24;102214.03;5054811;22;20045;-62
2023/06/01 02:30:27;;;;;;;15.85;10.77;;;;;;;13.20;74.18;102213.81;5033616;28;20129;-63
2023/06/01 02:32:52;;;;;;;16.77;10.68;;;;;;;13.14;74.23;102218.09;5033229;28;20501;-63
2023/06/01 02:35:18;;;;;;;16.52;10.40;;;;;;;13.25;74.08;102204.22;5033032;28;20042;-62
2023/06/01 02:37:43;;;;;;;16.20;10.77;;;;;;;13.11;74.12;102216.28;5033395;28;20049;-63
2023/06/01 02:40:11;;;;;;;15.77;10.82;;;;;;;13.06;74.64;102217.00;5033003;28;20462;-63
2023/06/01 02:42:39;;;;;;;14.73;9.70;;;;;;;13.01;74.46;102212.50;5033182;28;20064;-63
2023/06/01 02:45:09;;;;;;;18.55;10.20;;;;;;;13.01;74.33;102209.84;5033124;28;20116;-63
2023/06/01 02:47:34;;;;;;;16.77;9.32;;;;;;;12.95;74.71;102208.84;5015175;28;20386;-63
2023/06/01 02:50:00;;;;;;;15.13;9.20;;;;;;;12.97;74.51;102218.59;5032977;28;20022;-62
2023/06/01 02:52:25;;;;;;;11.43;8.70;;;;;;;12.77;74.59;102185.44;5033265;28;20049;-62
2023/06/01 02:54:51;;;;;;;16.10;8.90;;;;;;;12.90;74.84;102210.50;5015155;28;20034;-63
2023/06/01 02:57:16;;;;;;;14.57;8.80;;;;;;;12.93;74.66;102214.13;5015177;28;20124;-63
2023/06/01 02:59:41;;;;;;;13.40;8.75;;;;;;;12.90;74.95;102211.38;5033244;28;20536;-63
2023/06/01 03:02:07;;;;;;;18.05;8.38;;;;;;;12.95;74.96;102219.44;4998775;28;20112;-63
2023/06/01 03:04:32;;;;;;;12.65;7.50;;;;;;;13.01;75.20;102220.47;5032651;28;20079;-63
2023/06/01 03:06:59;;;;;;;14.38;8.40;;;;;;;13.01;75.00;102223.13;5032773;28;20029;-62
2023/06/01 03:09:24;;;;;;;11.32;8.25;;;;;;;13.02;74.90;102219.63;5032876;28;20028;-63
2023/06/01 03:11:50;;;;;;;12.35;8.20;;;;;;;13.01;74.78;102223.13;5032962;28;20393;-63
2023/06/01 03:14:15;;;;;;;13.85;7.35;;;;;;;13.02;74.75;102222.28;5032787;28;20569;-63
2023/06/01 03:16:41;;;;;;;17.40;8.48;;;;;;;12.95;74.72;102224.75;5032811;28;20028;-62
2023/06/01 03:19:06;;;;;;;12.20;8.32;;;;;;;12.97;75.18;102225.66;5032523;28;20184;-63
2023/06/01 03:21:32;;;;;;;12.75;8.55;;;;;;;12.96;75.07;102226.53;5032824;28;20116;-63
2023/06/01 03:23:57;;;;;;;12.35;8.23;;;;;;;12.95;75.27;102224.75;5032750;28;20482;-62
2023/06/01 03:26:23;;;;;;;12.63;7.93;;;;;;;12.87;74.56;102224.56;5032689;28;20033;-63
2023/06/01 03:28:48;;;;;;;13.95;7.38;;;;;;;12.90;75.80;102224.66;5032337;28;20053;-63
2023/06/01 03:31:14;;;;;;;11.50;7.72;;;;;;;12.75;75.40;102216.31;5032591;28;20469;-63
2023/06/01 03:33:39;;;;;;;14.35;7.90;;;;;;;12.73;75.86;102215.41;5032424;28;20021;-62
2023/06/01 03:36:06;;;;;;;14.07;7.57;;;;;;;12.71;75.76;102215.34;5032482;28;20071;-62
2023/06/01 03:38:32;;;;;;;12.60;7.13;;;;;;;12.70;76.16;102217.97;5032813;28;20044;-62
2023/06/01 03:40:58;;;;;;;14.30;7.68;;;;;;;12.74;75.75;102217.19;5032484;28;20030;-62
2023/06/01 03:43:23;;;;;;;14.32;7.53;;;;;;;12.74;76.20;102217.19;5032735;28;20039;-62
2023/06/01 03:45:48;;;;;;;13.82;7.78;;;;;;;12.74;76.09;102209.22;5032765;28;20552;-62
2023/06/01 03:48:14;;;;;;;13.75;7.95;;;;;;;12.65;76.04;102219.63;5032386;28;20482;-63
2023/06/01 03:50:39;;;;;;;14.23;6.97;;;;;;;12.64;76.32;102224.03;5032644;28;20117;-62
2023/06/01 03:53:05;;;;;;;14.95;8.00;;;;;;;12.66;76.29;102221.41;5014922;28;20036;-62
2023/06/01 03:55:30;;;;;;;14.63;7.32;;;;;;;12.67;76.28;102225.84;5032531;28;20151;-62
2023/06/01 03:57:56;;;;;;;14.50;7.53;;;;;;;12.77;76.25;102227.88;5032108;28;20076;-63
2023/06/01 04:00:23;;;;;;;13.90;7.35;;;;;;;12.78;75.90;102230.56;5032658;28;20040;-63
2023/06/01 04:02:55;;;;;;;12.93;7.40;;;;;;;12.88;76.01;102234.31;5014672;28;20540;-63
2023/06/01 04:05:21;;;;;;;12.63;7.43;;;;;;;12.91;75.43;102223.78;5032290;28;20067;-62
2023/06/01 04:07:51;;;;;;;15.52;7.45;;;;;;;13.00;75.54;102233.72;5032327;28;20280;-62
2023/06/01 04:10:17;;;;;;;12.55;7.40;;;;;;;13.07;75.51;102224.16;5032535;28;20136;-62
2023/06/01 04:12:44;;;;;;;12.23;7.00;;;;;;;13.13;74.76;102226.91;5032541;28;20085;-62
2023/06/01 04:15:11;;;;;;;12.68;6.70;;;;;;;13.25;74.34;102228.13;5032239;28;20063;-63
2023/06/01 04:17:37;;;;;;;11.60;7.32;;;;;;;13.24;73.37;102231.66;5034751;28;20433;-63
2023/06/01 04:20:12;;;;;;;10.95;7.15;;;;;;;13.22;73.36;102228.03;5035687;28;20022;-63
2023/06/01 04:22:39;;;;;;;12.68;6.95;;;;;;;13.22;73.06;102236.00;5035905;28;20110;-63
2023/06/01 04:25:07;;;;;;;12.25;6.97;;;;;;;13.12;73.33;102227.78;5035796;28;20080;-63
2023/06/01 04:27:36;;;;;;;10.85;6.88;;;;;;;13.16;73.82;102232.31;5035491;28;20044;-62
2023/06/01 04:30:03;;;;;;;14.90;7.55;;;;;;;13.11;73.20;102229.56;5035483;28;20069;-62
2023/06/01 04:32:29;;;;;;;11.60;6.93;;;;;;;13.09;72.81;102233.91;5035429;28;20032;-62
2023/06/01 04:34:56;;;;;;;14.20;6.90;;;;;;;13.13;73.17;102240.19;5017748;28;20029;-62
2023/06/01 04:37:22;;;;;;;15.07;7.13;;;;;;;13.17;73.14;102234.97;5035688;28;20038;-63
2023/06/01 04:39:51;;;;;;;12.63;7.35;;;;;;;13.22;72.23;102238.66;5035386;28;20029;-63
2023/06/01 04:42:18;;;;;;;13.15;7.82;;;;;;;13.22;72.18;102243.97;5035152;28;20120;-63
2023/06/01 04:44:46;;;;;;;12.60;8.27;;;;;;;13.12;71.11;102244.59;5035451;28;20117;-63
2023/06/01 04:47:12;;;;;;;12.63;7.85;;;;;;;13.03;71.93;102244.41;5035253;28;20494;-63
2023/06/01 04:49:41;;;;;;;13.05;8.15;;;;;;;12.97;72.13;102250.44;5035121;28;20075;-63
2023/06/01 04:52:07;;;;;;;14.10;7.63;;;;;;;12.98;71.86;102252.25;5035112;28;20105;-63
2023/06/01 04:54:33;;;;;;;12.55;7.75;;;;;;;13.04;71.70;102248.84;5017472;28;20036;-63
2023/06/01 04:56:58;;;;;;;12.43;7.47;;;;;;;13.17;71.33;102250.91;5034553;28;20402;-63
2023/06/01 04:59:24;;;;;;;15.90;8.07;;;;;;;13.18;71.46;102249.16;5034928;28;20049;-63
2023/06/01 05:01:49;;;;;;;15.40;8.02;;;;;;;13.12;71.26;102247.25;5034941;28;20104;-63
2023/06/01 05:04:14;;;;;;;13.45;8.02;;;;;;;13.14;71.41;102236.66;5017113;28;20087;-63
2023/06/01 05:06:40;;;;;;;14.60;8.43;;;;;;;13.18;71.53;102238.53;5034620;28;20025;-63
2023/06/01 05:09:05;;;;;;;13.13;8.30;;;;;;;13.18;71.04;102238.53;5035014;28;20028;-63
2023/06/01 05:11:31;;;;;;;14.52;7.93;;;;;;;13.21;71.46;102234.19;5016865;28;20373;-62
2023/06/01 05:14:01;;;;;;;13.25;8.30;;;;;;;13.30;71.84;102238.84;5034516;28;20037;-62
2023/06/01 05:16:27;;;;;;;15.40;8.45;;;;;;;13.30;70.52;102238.84;5034954;28;20549;-62
2023/06/01 05:18:52;;;;;;;13.90;7.85;;;;;;;13.32;71.29;102228.25;5034770;28;20049;-63
2023/06/01 05:21:18;;;;;;;16.92;8.63;;;;;;;13.38;70.51;102231.03;5034867;28;20029;-62
2023/06/01 05:23:43;;;;;;;17.55;8.45;;;;;;;13.53;70.35;102237.59;5034509;28;20386;-62
2023/06/01 05:26:08;;;;;;;13.55;8.20;;;;;;;13.72;70.37;102233.53;5034334;28;20389;-63
2023/06/01 05:28:35;;;;;;;15.57;7.97;;;;;;;13.96;69.50;102227.81;5032846;28;20042;-63
2023/06/01 05:31:01;;;;;;;14.23;8.00;;;;;;;14.18;69.18;102225.56;5034436;28;20046;-63
2023/06/01 05:33:26;;;;;;;13.88;8.02;;;;;;;14.42;68.20;102233.03;5034369;28;20037;-63
2023/06/01 05:35:52;;;;;;;13.60;7.50;;;;;;;14.51;67.42;102235.88;5034252;28;20033;-62
2023/06/01 05:38:18;;;;;;;15.32;8.15;;;;;;;14.48;66.59;102239.41;5034482;28;20040;-63
2023/06/01 05:40:44;;;;;;;14.90;7.78;;;;;;;14.36;66.55;102232.94;5016461;28;20078;-64
2023/06/01 05:43:10;;;;;;;13.52;7.88;;;;;;;14.26;67.09;102229.22;5034036;28;20033;-63
2023/06/01 05:45:35;;;;;;;10.48;7.55;;;;;;;14.30;67.24;102231.06;5033803;28;20034;-63
2023/06/01 05:48:02;;;;;;;13.32;8.18;;;;;;;14.37;67.12;102232.06;5049365;28;20025;-63
2023/06/01 05:50:27;;;;;;;14.23;8.00;;;;;;;14.51;66.71;102230.56;5033886;28;20228;-63
2023/06/01 05:52:53;;;;;;;18.65;8.13;;;;;;;14.59;66.18;102230.72;5034055;28;20037;-63
2023/06/01 05:55:19;;;;;;;15.13;8.38;;;;;;;14.69;65.67;102233.56;5016188;28;20394;-64
2023/06/01 05:57:45;;;;;;;13.57;7.78;;;;;;;14.80;66.59;102236.38;5033859;28;20033;-63
2023/06/01 06:00:13;;;;;;;17.85;7.78;;;;;;;14.81;66.00;102234.59;5049416;28;20029;-63
2023/06/01 06:02:39;;;;;;;13.32;7.68;;;;;;;14.78;65.47;102231.03;5033849;28;20037;-63
2023/06/01 06:05:05;;;;;;;16.02;7.47;;;;;;;14.68;65.36;102233.50;5034069;28;20497;-63
2023/06/01 06:07:31;;;;;;;13.52;7.75;;;;;;;14.59;65.98;102226.28;5033691;28;20033;-63
2023/06/01 06:09:56;;;;;;;13.40;7.20;;;;;;;14.59;66.52;102226.28;5033371;28;20430;-63
2023/06/01 06:12:22;;;;;;;14.82;7.57;;;;;;;14.56;66.34;102230.66;5033393;28;20450;-63
2023/06/01 06:14:48;;;;;;;12.30;7.63;;;;;;;14.56;66.15;102239.56;5033532;28;20120;-63
2023/06/01 06:17:14;;;;;;;12.15;7.80;;;;;;;14.45;65.69;102244.63;5033532;28;20045;-63
2023/06/01 06:19:39;;;;;;;15.60;8.40;;;;;;;14.36;66.10;102248.91;5033529;28;20041;-63
2023/06/01 06:22:05;;;;;;;18.42;8.52;;;;;;;14.41;65.57;102255.19;5033458;28;20048;-63
2023/06/01 06:24:30;;;;;;;14.63;8.30;;;;;;;14.62;65.25;102247.63;5033089;28;20029;-63
2023/06/01 06:26:56;;;;;;;11.73;7.13;;;;;;;14.81;64.53;102254.13;5048533;28;20025;-63
2023/06/01 06:29:21;;;;;;;16.45;8.07;;;;;;;15.09;64.10;102249.22;5032733;28;20469;-63
2023/06/01 06:31:46;;;;;;;15.77;7.65;;;;;;;15.36;62.48;102246.06;5031964;28;20033;-63
2023/06/01 06:34:12;;;;;;;13.30;7.10;;;;;;;15.55;61.80;102249.88;5048436;28;20363;-63
2023/06/01 06:36:38;;;;;;;17.05;7.32;;;;;;;15.85;61.38;102236.94;5033453;28;20444;-63
2023/06/01 06:39:03;;;;;;;12.20;7.22;;;;;;;15.96;60.51;102242.38;5015084;28;20127;-63
2023/06/01 06:41:29;;;;;;;12.80;7.15;;;;;;;16.16;60.16;102237.25;5032883;28;20029;-63
2023/06/01 06:43:54;;;;;;;12.85;7.10;;;;;;;16.31;59.50;102237.41;5033266;28;20133;-63
2023/06/01 06:46:21;;;;;;;15.88;7.60;;;;;;;16.67;58.46;102242.19;5033171;28;20434;-64
2023/06/01 06:48:46;;;;;;;14.48;7.05;;;;;;;16.95;57.44;102248.63;5032860;28;20431;-63
2023/06/01 06:51:12;;;;;;;11.23;6.97;;;;;;;17.26;57.01;102251.53;5048014;28;20545;-63
2023/06/01 06:53:37;;;;;;;17.55;7.40;;;;;;;17.38;56.08;102242.66;5032991;28;20040;-64
2023/06/01 06:56:03;;;;;;;11.27;6.97;;;;;;;17.73;55.89;102240.16;5047878;28;20040;-63
2023/06/01 06:58:29;;;;;;;12.07;6.68;;;;;;;18.10;54.85;102251.84;5032954;28;20466;-63
2023/06/01 07:00:54;;;;;;;14.60;6.80;;;;;;;18.50;53.96;102243.91;5032711;28;20112;-63
2023/06/01 07:03:20;;;;;;;12.02;6.70;;;;;;;18.69;52.39;102252.81;5032626;28;20053;-63
2023/06/01 07:05:45;;;;;;;13.07;7.05;;;;;;;18.51;51.26;102253.72;5048253;28;20075;-63
2023/06/01 07:08:11;;;;;;;13.70;6.85;;;;;;;18.39;51.83;102254.59;5032882;28;20037;-63
2023/06/01 07:10:37;;;;;;;16.42;6.80;;;;;;;18.23;51.96;102247.41;5032663;28;20088;-63
2023/06/01 07:13:02;;;;;;;14.68;6.97;;;;;;;17.96;52.98;102249.16;5032854;28;20426;-63
2023/06/01 07:15:27;;;;;;;11.93;6.85;;;;;;;17.97;52.74;102247.38;5032733;28;20041;-63
2023/06/01 07:17:53;;;;;;;13.88;7.30;;;;;;;18.04;53.35;102248.28;5032872;28;20547;-63
2023/06/01 07:20:18;;;;;;;14.88;7.18;;;;;;;18.37;52.29;102247.44;5033085;28;20030;-63
2023/06/01 07:22:44;;;;;;;16.02;7.32;;;;;;;18.49;53.52;102242.09;5032889;28;20056;-64
2023/06/01 07:25:12;;;;;;;14.25;6.82;;;;;;;18.72;51.82;102237.69;5032415;28;20030;-63
2023/06/01 07:27:42;;;;;;;14.25;7.35;;;;;;;18.91;50.61;102245.69;5032897;28;20069;-63
2023/06/01 07:30:09;;;;;;;13.25;7.32;;;;;;;18.91;50.24;102243.00;5032666;28;20069;-63
2023/06/01 07:32:34;;;;;;;13.65;7.18;;;;;;;18.93;50.05;102235.88;5032798;28;20084;-63
2023/06/01 07:35:01;;;;;;;14.70;6.63;;;;;;;19.07;51.37;102235.84;5032749;28;20557;-63
2023/06/01 07:37:27;;;;;;;14.45;6.75;;;;;;;19.34;51.19;102237.53;5032918;28;20025;-64
2023/06/01 07:39:55;;;;;;;12.95;6.43;;;;;;;19.49;49.58;102235.72;5032862;28;20103;-64
2023/06/01 07:42:21;;;;;;;14.90;7.13;;;;;;;19.75;48.00;102241.00;5032770;28;20080;-63
2023/06/01 07:44:46;;;;;;;12.98;6.90;;;;;;;19.84;47.71;102241.84;5048166;28;20100;-63
2023/06/01 07:47:12;;;;;;;14.27;7.05;;;;;;;19.95;47.76;102246.22;5032852;28;20030;-63
2023/06/01 07:49:37;;;;;;;14.55;7.05;;;;;;;20.16;48.62;102241.63;5032715;28;20056;-63
2023/06/01 07:52:04;;;;;;;12.70;7.15;;;;;;;20.55;47.66;102237.78;5034373;28;20022;-63
2023/06/01 07:54:30;;;;;;;15.25;7.00;;;;;;;20.65;46.07;102242.19;5036613;28;20033;-64
2023/06/01 07:56:56;;;;;;;15.65;7.40;;;;;;;20.60;47.05;102238.66;5036024;28;20504;-63
2023/06/01 07:59:23;;;;;;;15.18;7.10;;;;;;;20.85;46.04;102235.72;5036313;28;20038;-63
2023/06/01 08:01:49;;;;;;;14.02;7.20;;;;;;;20.96;45.64;102242.78;5036270;28;20037;-63
2023/06/01 08:04:16;;;;;;;13.60;6.95;;;;;;;21.23;44.58;102232.63;5036299;28;20381;-63
2023/06/01 08:06:43;;;;;;;15.02;7.13;;;;;;;21.26;45.28;102238.88;5036234;28;20033;-63
2023/06/01 08:09:09;;;;;;;14.80;7.47;;;;;;;21.40;44.23;102233.38;5036156;28;20091;-63
2023/06/01 08:11:35;;;;;;;13.60;7.55;;;;;;;21.45;44.06;102236.88;5036283;28;20076;-64
2023/06/01 08:14:02;;;;;;;17.35;7.65;;;;;;;21.62;44.17;102231.28;5036042;28;20429;-63
2023/06/01 08:16:28;;;;;;;12.68;6.78;;;;;;;21.93;43.37;102242.56;5018363;28;20057;-63
2023/06/01 08:18:56;;;;;;;11.85;6.93;;;;;;;22.06;42.15;102229.81;5035970;28;20124;-64
2023/06/01 08:21:25;;;;;;;13.77;7.40;;;;;;;22.01;42.05;102228.97;5035962;28;20425;-64
2023/06/01 08:23:57;;;;;;;17.30;7.07;;;;;;;22.12;41.91;102224.34;5035942;28;20033;-64
2023/06/01 08:26:23;;;;;;;;;;;;;;;22.45;42.32;102227.44;5036322;28;20079;-63
2023/06/01 08:28:51;;;;;;;16.27;7.90;;;;;;;22.19;41.67;102228.75;5035485;28;19925;-64
2023/06/01 08:31:26;;;;;;;13.98;7.40;;;;;;;22.30;41.51;102227.66;5036046;28;20445;-63
2023/06/01 08:33:52;;;;;;;14.55;7.38;;;;;;;22.48;41.85;102230.06;5035634;28;20033;-64
2023/06/01 08:36:19;;;;;;;14.93;7.50;;;;;;;22.71;39.79;102226.97;5035879;28;20030;-63
2023/06/01 08:38:45;;;;;;;13.05;7.50;;;;;;;22.63;40.05;102219.03;5035788;28;20478;-63
2023/06/01 08:41:23;;;;;;;15.82;7.60;;;;;;;22.66;39.30;102237.84;5035501;28;20498;-64
2023/06/01 08:43:57;;;;;;;13.25;7.45;;;;;;;22.71;39.21;102218.91;5035637;28;20112;-63
2023/06/01 08:46:24;;;;;;;14.90;7.70;;;;;;;22.66;40.33;102221.69;5035643;28;20060;-63
2023/06/01 08:48:54;;;;;;;12.93;7.00;;;;;;;23.19;39.87;102219.81;5035527;28;20025;-64
2023/06/01 08:51:20;;;;;;;15.20;7.50;;;;;;;23.53;38.59;102218.22;5035374;28;20044;-63
2023/06/01 08:53:49;;;;;;;13.23;7.57;;;;;;;23.52;38.81;102214.66;5035407;28;20025;-64
2023/06/01 08:56:14;;;;;;;12.88;7.22;;;;;;;23.72;38.11;102212.44;5034626;28;20145;-63
2023/06/01 08:58:41;;;;;;;15.57;8.50;;;;;;;23.79;36.87;102205.09;5035044;28;20100;-63
2023/06/01 09:01:07;;;;;;;17.15;7.95;;;;;;;23.74;37.15;102207.00;5034792;28;20382;-63
2023/06/01 09:03:32;;;;;;;12.52;7.82;;;;;;;23.72;37.71;102207.06;5034870;28;20030;-63
2023/06/01 09:05:58;;;;;;;17.13;7.95;;;;;;;23.96;37.13;102215.50;5034997;28;20492;-63
2023/06/01 09:08:24;;;;;;;11.45;7.53;;;;;;;24.17;37.08;102206.88;5035247;28;20164;-64
2023/06/01 09:10:50;;;;;;;13.82;7.75;;;;;;;24.18;37.11;102205.94;5034854;28;20079;-64
2023/06/01 09:13:33;;;;;;;12.63;7.72;;;;;;;24.28;37.49;102201.19;5035284;28;20025;-64
2023/06/01 09:15:59;;;;;;;15.50;8.07;;;;;;;24.54;36.37;102195.19;5034599;28;20568;-63
2023/06/01 09:18:24;;;;;;;15.93;7.63;;;;;;;24.63;36.28;102192.25;5035057;28;20030;-63
2023/06/01 09:20:53;;;;;;;14.63;7.80;;;;;;;24.59;35.91;102198.66;5034899;28;20061;-65
2023/06/01 09:23:25;;;;;;;14.20;8.27;;;;;;;24.88;35.71;102181.66;5034792;28;20037;-64
2023/06/01 09:26:26;;;;;;;14.07;8.30;;;;;;;25.17;36.63;102188.97;5034638;28;20101;-63
2023/06/01 09:28:55;;;;;;;15.02;8.07;;;;;;;24.95;35.17;102187.78;5002101;28;20520;-63
2023/06/01 09:31:40;;;;;;;12.43;7.95;;;;;;;25.10;35.54;102176.56;5034598;28;20493;-63
2023/06/01 09:34:18;;;;;;;13.57;8.05;;;;;;;25.20;34.99;102178.06;5034617;28;20025;-64
2023/06/01 09:36:54;;;;;;;15.05;8.15;;;;;;;25.37;34.05;102169.44;5034519;28;20037;-63
2023/06/01 09:39:22;;;;;;;11.68;7.40;;;;;;;25.47;34.87;102165.53;5034582;28;20049;-62
2023/06/01 09:42:01;;;;;;;12.07;7.45;;;;;;;25.50;34.78;102166.38;5034317;28;20025;-63
2023/06/01 09:44:35;;;;;;;14.30;8.32;;;;;;;25.56;35.19;102166.19;5034751;28;20047;-63
2023/06/01 09:47:06;;;;;;;13.13;8.23;;;;;;;25.79;34.82;102163.69;5034241;28;20025;-63
2023/06/01 09:49:32;;;;;;;13.13;7.85;;;;;;;25.83;32.64;102161.78;5034547;28;20024;-63
2023/06/01 09:52:04;;;;;;;14.25;7.95;;;;;;;26.02;33.80;102162.94;5034633;28;20189;-64
2023/06/01 09:54:33;;;;;;;16.77;8.90;;;;;;;25.94;33.95;102152.34;5034178;28;20018;-64
2023/06/01 09:57:02;;;;;;;16.13;8.23;;;;;;;26.20;32.63;102169.56;5034071;28;20431;-63
2023/06/01 09:59:28;;;;;;;14.73;8.15;;;;;;;26.33;32.86;102160.06;5034009;28;20025;-64
2023/06/01 10:01:58;;;;;;;18.67;8.25;;;;;;;26.63;32.33;102162.69;5034221;28;20565;-64
2023/06/01 10:04:26;;;;;;;17.30;8.40;;;;;;;26.69;32.23;102155.25;5034259;28;20028;-64
2023/06/01 10:06:53;;;;;;;13.98;8.25;;;;;;;26.73;32.87;102153.31;5034161;28;20373;-63
2023/06/01 10:09:20;;;;;;;16.70;8.82;;;;;;;26.68;32.29;102158.91;5034310;28;20042;-64
2023/06/01 10:11:53;;;;;;;14.63;8.65;;;;;;;26.65;33.75;102159.00;5034009;28;20029;-63
2023/06/01 10:14:19;;;;;;;16.05;8.40;;;;;;;26.65;33.03;102158.13;5033200;28;20037;-64
2023/06/01 10:16:44;;;;;;;15.57;8.48;;;;;;;26.92;32.46;102146.25;5049204;28;20018;-64
2023/06/01 10:19:11;;;;;;;15.35;8.52;;;;;;;26.93;32.67;102152.56;5033912;28;20501;-63
2023/06/01 10:21:37;;;;;;;15.15;8.07;;;;;;;26.68;33.40;102153.47;5033747;28;20470;-64
2023/06/01 10:24:06;;;;;;;15.23;8.57;;;;;;;26.78;31.74;102148.59;5032410;28;20037;-63
2023/06/01 10:26:41;;;;;;;15.63;8.70;;;;;;;26.99;32.45;102148.75;5051693;28;20478;-64
2023/06/01 10:29:08;;;;;;;14.82;8.60;;;;;;;27.25;30.97;102140.53;5052775;28;20048;-63
2023/06/01 10:31:38;;;;;;;16.17;8.13;;;;;;;27.65;30.41;102138.97;5053182;28;20032;-64
2023/06/01 10:34:05;;;;;;;14.88;8.82;;;;;;;27.30;31.99;102141.25;5053278;28;20047;-63
2023/06/01 10:36:53;;;;;;;17.35;9.00;;;;;;;27.60;32.45;102140.97;5053018;28;20037;-63
2023/06/01 10:39:23;;;;;;;17.33;9.70;;;;;;;27.36;31.30;102143.69;5053295;28;20032;-64
2023/06/01 10:41:48;;;;;;;18.40;9.00;;;;;;;27.64;30.96;102142.63;5052889;28;20464;-64
2023/06/01 10:44:39;;;;;;;14.93;9.48;;;;;;;27.76;31.39;102144.00;5053042;28;20151;-64
2023/06/01 10:47:11;;;;;;;14.50;9.68;;;;;;;27.62;31.40;102140.00;5035054;28;20033;-64
2023/06/01 10:49:49;;;;;;;21.77;9.93;;;;;;;27.75;30.80;102134.97;5052972;28;20600;-64
2023/06/01 10:52:24;;;;;;;14.10;9.75;;;;;;;27.74;31.38;102133.19;5053182;28;20037;-61
2023/06/01 10:54:50;;;;;;;15.35;9.50;;;;;;;27.67;31.57;102139.81;5052987;28;20435;-64
2023/06/01 10:57:23;;;;;;;18.42;9.43;;;;;;;27.60;32.52;102139.16;5053004;28;20029;-64
2023/06/01 11:00:10;;;;;;;14.95;9.60;;;;;;;27.90;31.59;102133.47;5052784;28;20029;-63
2023/06/01 11:02:52;;;;;;;14.35;9.52;;;;;;;27.83;29.80;102131.94;5053059;28;20033;-64
2023/06/01 11:05:33;;;;;;;13.90;8.80;;;;;;;27.65;32.08;102128.09;5053095;28;20033;-64
2023/06/01 11:07:59;;;;;;;14.03;9.40;;;;;;;27.82;32.20;102125.63;5053058;28;20039;-64
2023/06/01 11:10:52;;;;;;;16.88;9.30;;;;;;;27.97;30.87;102131.38;5052720;28;20108;-66
2023/06/01 11:13:21;;;;;;;14.23;8.32;;;;;;;28.03;29.58;102122.97;5035008;28;20021;-64
2023/06/01 11:16:14;;;;;;;13.73;9.05;;;;;;;28.28;30.45;102123.69;5052839;28;20078;-64
2023/06/01 11:18:57;;;;;;;15.60;8.65;;;;;;;28.23;29.91;102111.25;5015439;28;20452;-64
2023/06/01 11:21:24;;;;;;;13.95;8.98;;;;;;;28.34;30.16;102114.38;5052941;28;20474;-64